Avalon, Australia
Current Conditions -  °F | °C
As of 1:00 PM on Tuesday 23 Dec 2014 (Local Time) from YMAV Reporting Station
Overcast Overcast  
Wind Chill: 79°   Ceiling: 6600
Heat Index: 80°   Visibility: 6mi
Dew Point: 59°   Wind: 15mph
Humidity: 51%   Direction: 270°W
Pressure: 29.74"   Gusts: NA
Location:  38.03°S, 144.47°E
Report Text: YMAV 230200Z AUTO 27013KT 9999 // BKN066 BKN074 OVC082 26/15 Q1007
Loading
Personal Weather Stations






























Interactive Weather Map New forecast layout! Learn more

10-Day Weather Forecast

Advertisements
Track Severe Weather on mobile